Time;durP1;ratioP1;P1;durP2;ratioP2;P2;SDS_P1;SDS_P2;PMS_P1;PMS_P2;Temp;Humidity;BMP_temperature;BMP_pressure;BME280_temperature;BME280_humidity;BME280_pressure;Samples;Min_cycle;Max_cycle;Signal;HPM_P1;HPM_P2
2021/12/17 00:00:00;;;;;;;39.33;29.05;;;;;;;6.13;100.00;103933.59;5022395;28;20497;-60
2021/12/17 00:04:53;;;;;;;42.22;30.80;;;;;;;6.16;100.00;103933.47;5028441;28;20041;-61
2021/12/17 00:07:21;;;;;;;40.42;30.80;;;;;;;6.17;100.00;103935.22;5028620;28;20025;-60
2021/12/17 00:09:48;;;;;;;35.40;28.83;;;;;;;6.23;100.00;103934.13;5031074;28;20413;-60
2021/12/17 00:12:17;;;;;;;40.75;31.35;;;;;;;6.20;100.00;103932.44;5031510;28;20029;-60
2021/12/17 00:14:47;;;;;;;39.58;31.40;;;;;;;6.23;100.00;103935.00;5031170;28;20486;-61
2021/12/17 00:17:19;;;;;;;39.63;31.38;;;;;;;6.19;100.00;103917.56;5030484;28;20029;-60
2021/12/17 00:49:57;;;;;;;41.53;28.20;;;;;;;6.26;100.00;103913.78;5031466;28;20128;-61
2021/12/17 00:52:22;;;;;;;41.33;28.38;;;;;;;6.30;100.00;103919.78;5026765;28;20401;-61
2021/12/17 00:54:48;;;;;;;39.88;27.73;;;;;;;6.33;100.00;103915.25;5030168;28;20033;-61
2021/12/17 00:57:18;;;;;;;41.00;29.02;;;;;;;6.33;100.00;103909.97;5027599;28;20478;-61
2021/12/17 00:59:50;;;;;;;36.63;27.45;;;;;;;6.31;100.00;103917.09;5029548;28;20484;-61
2021/12/17 01:02:20;;;;;;;39.75;28.55;;;;;;;6.31;100.00;103911.84;5027642;28;20083;-61
2021/12/17 01:04:50;;;;;;;42.70;29.17;;;;;;;6.32;100.00;103913.53;5034388;28;20470;-61
2021/12/17 01:07:18;;;;;;;41.60;29.80;;;;;;;6.29;100.00;103913.69;5036858;28;20037;-61
2021/12/17 01:09:45;;;;;;;45.22;30.67;;;;;;;6.33;100.00;103914.41;5036200;28;20069;-61
2021/12/17 01:12:12;;;;;;;44.67;31.55;;;;;;;6.32;100.00;103903.00;5038018;28;20029;-61
2021/12/17 01:14:40;;;;;;;45.45;31.55;;;;;;;6.33;100.00;103909.97;5037038;28;20083;-61
2021/12/17 01:17:07;;;;;;;44.35;30.38;;;;;;;6.35;100.00;103902.03;5034373;28;20355;-61
2021/12/17 01:25:13;;;;;;;41.35;28.50;;;;;;;6.37;100.00;103899.34;4956016;28;20039;-61
2021/12/17 01:35:50;;;;;;;40.88;28.70;;;;;;;6.35;100.00;103904.66;5032994;28;20036;-61
2021/12/17 01:43:49;;;;;;;40.72;29.00;;;;;;;6.39;100.00;103902.78;5030991;28;20042;-61
2021/12/17 01:46:21;;;;;;;39.63;27.88;;;;;;;6.36;100.00;103895.00;5036711;28;20021;-61
2021/12/17 01:49:18;;;;;;;41.33;28.33;;;;;;;6.41;100.00;103906.22;5036855;28;20109;-61
2021/12/17 02:00:03;;;;;;;47.95;31.30;;;;;;;6.43;100.00;103894.69;5037141;28;20041;-61
2021/12/17 02:02:32;;;;;;;49.60;32.30;;;;;;;6.46;100.00;103898.97;5036317;28;20116;-61
2021/12/17 02:04:57;;;;;;;52.15;33.35;;;;;;;6.47;100.00;103900.72;5035970;28;20069;-61
2021/12/17 02:07:23;;;;;;;52.53;34.35;;;;;;;6.46;100.00;103901.63;5036039;28;20119;-61
2021/12/17 02:20:46;;;;;;;45.00;29.88;;;;;;;6.39;100.00;103892.22;5033543;28;20045;-61
2021/12/17 02:28:49;;;;;;;42.58;30.05;;;;;;;6.37;100.00;103894.91;5029457;28;20037;-61
2021/12/17 02:31:32;;;;;;;40.60;28.80;;;;;;;6.36;100.00;103895.00;5032621;28;20061;-61
2021/12/17 02:34:22;;;;;;;39.55;28.15;;;;;;;6.35;100.00;103902.03;5032381;28;20454;-61
2021/12/17 02:36:49;;;;;;;42.70;29.65;;;;;;;6.29;100.00;103903.13;5023485;28;20044;-61
2021/12/17 02:47:26;;;;;;;43.05;30.02;;;;;;;6.39;100.00;103908.91;5032962;28;20046;-61
2021/12/17 02:49:51;;;;;;;52.95;32.20;;;;;;;6.41;100.00;103900.94;5032690;28;20041;-61
2021/12/17 02:52:18;;;;;;;45.30;30.58;;;;;;;6.42;100.00;103897.41;5033057;28;20033;-61
2021/12/17 02:54:43;;;;;;;46.08;30.17;;;;;;;6.43;100.00;103899.09;5030775;28;20026;-61
2021/12/17 02:57:11;;;;;;;48.95;31.58;;;;;;;6.41;100.00;103893.06;5032423;28;20479;-61
2021/12/17 02:59:37;;;;;;;50.92;31.25;;;;;;;6.43;100.00;103899.09;5032014;28;20025;-61
2021/12/17 03:02:05;;;;;;;58.92;33.88;;;;;;;6.46;100.00;103898.97;5031748;28;20603;-61
2021/12/17 03:04:31;;;;;;;69.95;36.33;;;;;;;6.49;100.00;103895.38;5026029;28;20041;-61
2021/12/17 03:06:58;;;;;;;61.90;34.88;;;;;;;6.48;100.00;103897.16;5032026;28;20481;-61
2021/12/17 03:09:40;;;;;;;64.05;34.67;;;;;;;6.53;100.00;103894.34;5031694;28;20060;-61
2021/12/17 03:12:16;;;;;;;70.70;36.42;;;;;;;6.55;100.00;103903.91;5030619;28;20021;-61
2021/12/17 03:14:49;;;;;;;67.32;35.42;;;;;;;6.57;100.00;103901.22;5032444;28;20044;-61
2021/12/17 03:17:25;;;;;;;;;;;;;;;6.65;100.00;103903.56;5032785;28;20474;-61
2021/12/17 03:25:03;;;;;;;75.93;37.53;;;;;;;6.63;100.00;103914.16;5027586;28;20179;-61
2021/12/17 03:27:28;;;;;;;87.10;38.10;;;;;;;6.64;100.00;103915.00;5031448;28;20124;-61
2021/12/17 03:29:53;;;;;;;87.28;38.67;;;;;;;6.64;100.00;103918.53;5025774;28;20713;-61
2021/12/17 03:32:18;;;;;;;87.35;38.95;;;;;;;6.66;100.00;103916.66;5031122;28;20048;-61
2021/12/17 03:34:44;;;;;;;102.03;39.97;;;;;;;6.67;100.00;103920.19;5029741;28;20041;-61
2021/12/17 03:37:09;;;;;;;102.68;39.95;;;;;;;6.68;100.00;103911.34;5030987;28;20045;-61
2021/12/17 03:39:37;;;;;;;102.15;39.63;;;;;;;6.69;100.00;103905.16;5032189;28;20087;-61
2021/12/17 03:42:06;;;;;;;104.53;40.22;;;;;;;6.69;100.00;103910.41;5031959;28;20025;-61
2021/12/17 03:44:32;;;;;;;106.60;40.67;;;;;;;6.69;100.00;103911.28;5018673;28;20076;-60
2021/12/17 03:46:58;;;;;;;116.90;40.15;;;;;;;6.71;100.00;103917.34;5031313;28;20617;-61
2021/12/17 03:49:24;;;;;;;117.57;38.55;;;;;;;6.71;100.00;103914.72;5030981;28;20025;-61
2021/12/17 03:52:05;;;;;;;131.35;40.55;;;;;;;6.70;100.00;103913.00;5030842;28;20025;-61
2021/12/17 03:54:37;;;;;;;123.18;39.95;;;;;;;6.74;100.00;103921.66;5030214;28;20468;-61
2021/12/17 03:57:07;;;;;;;125.57;40.00;;;;;;;6.68;100.00;103908.72;5027933;28;20072;-61
2021/12/17 03:59:33;;;;;;;126.68;38.25;;;;;;;6.73;100.00;103912.03;5030594;28;20025;-60
2021/12/17 04:01:59;;;;;;;133.75;39.17;;;;;;;6.73;100.00;103912.03;5030156;28;20049;-61
2021/12/17 04:04:24;;;;;;;122.55;38.00;;;;;;;6.72;100.00;103911.16;5031666;28;20717;-61
2021/12/17 04:06:49;;;;;;;125.57;38.30;;;;;;;6.73;100.00;103912.03;5030041;28;20124;-61
2021/12/17 04:09:19;;;;;;;129.52;37.88;;;;;;;6.71;100.00;103904.16;5031169;28;20026;-61
2021/12/17 04:11:44;;;;;;;136.23;39.45;;;;;;;6.72;100.00;103903.25;5030398;28;20391;-61
2021/12/17 04:14:11;;;;;;;134.38;38.97;;;;;;;6.74;100.00;103908.47;5031726;28;20044;-61
2021/12/17 04:16:36;;;;;;;141.63;39.65;;;;;;;6.75;100.00;103899.63;5031015;28;20025;-61
2021/12/17 04:19:01;;;;;;;133.70;38.05;;;;;;;6.75;100.00;103899.63;5030836;28;20087;-61
2021/12/17 04:21:27;;;;;;;153.90;42.33;;;;;;;6.76;100.00;103903.97;5031341;28;20021;-61
2021/12/17 04:23:55;;;;;;;142.02;40.08;;;;;;;6.75;100.00;103899.63;5030045;28;20025;-61
2021/12/17 04:26:25;;;;;;;138.88;40.65;;;;;;;6.72;100.00;103894.50;5031751;28;20056;-61
2021/12/17 04:28:52;;;;;;;155.77;41.88;;;;;;;6.74;100.00;103905.84;5031492;28;20083;-61
2021/12/17 04:31:20;;;;;;;141.23;40.63;;;;;;;6.76;100.00;103903.97;5041839;28;20056;-61
2021/12/17 04:33:46;;;;;;;152.13;42.05;;;;;;;6.76;100.00;103901.34;5028027;28;20021;-61
2021/12/17 04:36:16;;;;;;;159.32;43.83;;;;;;;6.76;100.00;103903.97;5031981;28;20386;-61
2021/12/17 04:38:41;;;;;;;154.27;42.42;;;;;;;6.75;100.00;103899.63;5030118;28;20116;-61
2021/12/17 04:41:39;;;;;;;157.10;42.78;;;;;;;6.76;100.00;103903.97;5031910;28;20491;-61
2021/12/17 04:44:17;;;;;;;159.85;42.97;;;;;;;6.79;100.00;103906.50;5030119;28;20038;-61
2021/12/17 04:46:53;;;;;;;178.35;44.25;;;;;;;6.75;100.00;103909.34;5031546;28;20475;-61
2021/12/17 04:57:34;;;;;;;165.70;44.13;;;;;;;6.76;100.00;103896.06;5031308;28;20048;-61
2021/12/17 05:00:12;;;;;;;215.18;46.25;;;;;;;6.73;100.00;103893.56;5030956;28;20097;-61
2021/12/17 05:02:46;;;;;;;189.85;45.38;;;;;;;6.73;100.00;103888.28;5025787;28;20160;-61
2021/12/17 05:05:13;;;;;;;177.98;45.65;;;;;;;6.75;100.00;103898.78;5024000;28;20064;-61
2021/12/17 05:07:46;;;;;;;187.65;46.45;;;;;;;6.70;100.00;103891.03;5027908;28;20026;-61
2021/12/17 05:18:26;;;;;;;173.93;46.47;;;;;;;6.77;100.00;103903.09;5030376;28;20051;-61
2021/12/17 05:20:58;;;;;;;193.30;46.13;;;;;;;6.72;100.00;103894.50;5038906;28;20539;-62
2021/12/17 05:23:30;;;;;;;196.07;47.63;;;;;;;6.71;100.00;103887.50;5028746;28;20470;-62
2021/12/17 05:25:56;;;;;;;169.93;43.65;;;;;;;6.78;100.00;103901.28;5030008;28;20079;-62
2021/12/17 05:28:22;;;;;;;147.65;39.20;;;;;;;6.77;100.00;103903.09;5027633;28;20116;-62
2021/12/17 05:30:48;;;;;;;145.93;38.40;;;;;;;6.78;100.00;103909.19;5026706;28;20120;-61
2021/12/17 05:33:18;;;;;;;141.00;37.67;;;;;;;6.78;100.00;103907.44;5029085;28;20025;-62
2021/12/17 05:35:44;;;;;;;139.07;37.63;;;;;;;6.78;100.00;103915.34;5028889;28;20025;-62
2021/12/17 05:38:10;;;;;;;134.63;35.15;;;;;;;6.77;100.00;103918.03;5029299;28;20116;-62
2021/12/17 05:40:37;;;;;;;134.00;35.65;;;;;;;6.75;100.00;103915.47;5029674;28;20041;-62
2021/12/17 05:43:05;;;;;;;131.32;35.15;;;;;;;6.78;100.00;103920.63;5030059;28;20036;-62
2021/12/17 05:45:47;;;;;;;120.07;33.38;;;;;;;6.78;100.00;103919.75;5029529;28;20029;-62
2021/12/17 05:48:15;;;;;;;129.35;35.25;;;;;;;6.80;100.00;103907.34;5030883;28;20475;-62
2021/12/17 05:50:43;;;;;;;127.72;35.05;;;;;;;6.77;100.00;103905.72;5027762;28;20453;-62
2021/12/17 05:53:09;;;;;;;127.10;34.03;;;;;;;6.81;100.00;103915.22;5025756;28;20083;-62
2021/12/17 05:55:36;;;;;;;119.40;33.63;;;;;;;6.82;100.00;103901.09;5028783;28;20025;-62
2021/12/17 05:58:04;;;;;;;125.25;34.50;;;;;;;6.81;100.00;103903.81;5033247;28;20034;-62
2021/12/17 06:00:31;;;;;;;136.35;34.90;;;;;;;6.78;100.00;103907.44;5032564;28;20040;-62
2021/12/17 06:02:58;;;;;;;129.45;33.28;;;;;;;6.77;100.00;103913.63;5029026;28;20041;-62
2021/12/17 06:05:25;;;;;;;124.65;34.25;;;;;;;6.78;100.00;103915.34;5029763;28;20122;-62
2021/12/17 06:07:51;;;;;;;126.10;33.47;;;;;;;6.80;100.00;103928.47;5030829;28;20513;-62
2021/12/17 06:10:17;;;;;;;117.55;32.25;;;;;;;6.81;100.00;103923.13;5029581;28;20037;-61
2021/12/17 06:12:42;;;;;;;128.60;34.60;;;;;;;6.79;100.00;103927.63;5027004;28;20426;-62
2021/12/17 06:15:11;;;;;;;120.63;33.05;;;;;;;6.81;100.00;103931.03;5027116;28;20108;-62
2021/12/17 06:17:36;;;;;;;118.18;33.05;;;;;;;6.82;100.00;103932.75;5025442;28;20534;-62
2021/12/17 06:20:04;;;;;;;122.15;34.58;;;;;;;6.79;100.00;103932.88;5030772;28;20117;-62
2021/12/17 06:22:30;;;;;;;121.95;34.28;;;;;;;6.79;100.00;103924.97;5028601;28;20117;-62
2021/12/17 06:24:55;;;;;;;132.05;33.05;;;;;;;6.78;100.00;103931.19;5026559;28;20097;-62
2021/12/17 06:27:21;;;;;;;128.27;33.45;;;;;;;6.79;100.00;103932.88;5029695;28;20033;-62
2021/12/17 06:29:47;;;;;;;124.38;32.45;;;;;;;6.78;100.00;103941.72;5027565;28;20029;-62
2021/12/17 06:32:12;;;;;;;117.57;32.60;;;;;;;6.80;100.00;103945.16;5026532;28;20029;-58
2021/12/17 06:34:38;;;;;;;118.07;32.80;;;;;;;6.78;100.00;103941.72;5029474;28;20065;-62
2021/12/17 06:37:04;;;;;;;118.15;32.40;;;;;;;6.78;100.00;103946.13;5029016;28;20387;-62
2021/12/17 06:39:30;;;;;;;134.52;33.28;;;;;;;6.77;100.00;103939.16;5028340;28;20514;-62
2021/12/17 06:41:56;;;;;;;108.10;31.45;;;;;;;6.78;100.00;103941.72;5029760;28;20112;-62
2021/12/17 06:44:24;;;;;;;111.78;31.00;;;;;;;6.78;100.00;103941.72;5027093;28;20378;-61
2021/12/17 06:47:05;;;;;;;113.28;31.33;;;;;;;6.81;100.00;103944.22;5028449;28;20033;-62
2021/12/17 07:00:18;;;;;;;102.22;29.70;;;;;;;6.79;100.00;103932.88;5027671;28;20033;-62
2021/12/17 07:10:57;;;;;;;93.88;25.85;;;;;;;6.78;100.00;103941.72;5028257;28;20052;-62
2021/12/17 07:34:15;;;;;;;89.38;25.10;;;;;;;6.81;100.00;103938.94;5025408;28;20052;-62
2021/12/17 07:36:44;;;;;;;80.70;24.35;;;;;;;6.81;100.00;103940.75;5026961;28;20088;-62
2021/12/17 07:39:10;;;;;;;82.57;23.63;;;;;;;6.82;100.00;103935.38;5024865;28;20037;-62
2021/12/17 07:41:36;;;;;;;79.40;23.52;;;;;;;6.80;100.00;103934.59;5023882;28;20487;-62
2021/12/17 07:44:02;;;;;;;84.75;24.83;;;;;;;6.83;100.00;103931.84;5025486;28;20053;-62
2021/12/17 07:46:27;;;;;;;79.70;26.48;;;;;;;6.80;100.00;103933.72;5021998;28;20041;-62
2021/12/17 07:48:54;;;;;;;74.53;24.33;;;;;;;6.81;100.00;103931.03;5022924;28;20395;-63
2021/12/17 07:51:22;;;;;;;72.90;24.92;;;;;;;6.81;100.00;103933.69;5024347;28;20068;-62
2021/12/17 07:53:48;;;;;;;76.57;28.13;;;;;;;6.76;100.00;103932.16;5026602;28;20033;-62
2021/12/17 07:56:16;;;;;;;73.15;28.65;;;;;;;6.75;100.00;103931.28;5020587;28;20394;-62
2021/12/17 07:58:43;;;;;;;73.72;28.92;;;;;;;6.76;100.00;103932.16;5022931;28;20113;-62
2021/12/17 08:01:10;;;;;;;72.95;27.77;;;;;;;6.74;100.00;103929.56;5022939;28;20493;-62
2021/12/17 08:03:36;;;;;;;70.43;27.80;;;;;;;6.75;100.00;103926.00;5025967;28;20104;-62
2021/12/17 08:06:02;;;;;;;65.45;28.98;;;;;;;6.74;100.00;103932.22;5025260;28;20141;-63
2021/12/17 08:08:27;;;;;;;71.80;29.85;;;;;;;6.69;100.00;103931.53;5024388;28;20033;-62
2021/12/17 08:10:53;;;;;;;66.38;29.88;;;;;;;6.64;100.00;103941.38;5026719;28;20033;-62
2021/12/17 08:13:22;;;;;;;73.20;29.77;;;;;;;6.61;100.00;103944.16;5025096;28;20112;-62
2021/12/17 08:16:03;;;;;;;68.43;29.25;;;;;;;6.59;100.00;103942.44;5022696;28;20039;-62
2021/12/17 08:18:47;;;;;;;75.07;30.65;;;;;;;6.58;100.00;103930.16;5021757;28;20064;-62
2021/12/17 08:31:59;;;;;;;77.70;32.58;;;;;;;6.51;100.00;103949.75;5031056;28;20405;-62
2021/12/17 08:34:24;;;;;;;77.75;31.38;;;;;;;6.47;100.00;103961.34;5030309;28;20045;-62
2021/12/17 08:36:50;;;;;;;73.35;31.88;;;;;;;6.48;100.00;103968.34;5030192;28;20033;-62
2021/12/17 08:39:16;;;;;;;72.45;31.08;;;;;;;6.44;100.00;103969.38;5029052;28;20088;-62
2021/12/17 08:41:41;;;;;;;85.35;33.30;;;;;;;6.41;100.00;103970.34;5030502;28;20597;-62
2021/12/17 08:44:07;;;;;;;73.28;31.55;;;;;;;6.43;100.00;103972.91;5030796;28;20041;-62
2021/12/17 08:46:34;;;;;;;72.95;32.70;;;;;;;6.43;100.00;103967.66;5028210;28;20026;-58
2021/12/17 08:49:00;;;;;;;71.80;31.00;;;;;;;6.44;100.00;103972.00;5028874;28;20522;-58
2021/12/17 08:51:25;;;;;;;70.25;31.70;;;;;;;6.47;100.00;103969.25;5028958;28;20029;-58
2021/12/17 08:53:51;;;;;;;66.07;29.88;;;;;;;6.47;100.00;103969.25;5027515;28;20075;-57
2021/12/17 08:56:20;;;;;;;70.47;30.60;;;;;;;6.49;100.00;103962.16;5028783;28;20052;-59
2021/12/17 08:58:54;;;;;;;84.63;30.48;;;;;;;6.51;100.00;103956.81;5030524;28;20029;-59
2021/12/17 09:01:20;;;;;;;73.90;29.95;;;;;;;6.50;100.00;103947.19;5028427;28;20471;-59
2021/12/17 09:03:47;;;;;;;71.38;30.60;;;;;;;6.50;100.00;103953.31;5028301;28;20036;-60
2021/12/17 09:06:12;;;;;;;70.93;30.13;;;;;;;6.54;100.00;103962.84;5029256;28;20042;-59
2021/12/17 09:08:38;;;;;;;75.35;29.95;;;;;;;6.54;100.00;103960.22;5029948;28;20041;-58
2021/12/17 09:11:03;;;;;;;73.30;30.55;;;;;;;6.55;100.00;103959.28;5030026;28;20495;-59
2021/12/17 09:13:28;;;;;;;75.57;30.60;;;;;;;6.56;100.00;103963.63;5028760;28;20060;-59
2021/12/17 09:16:04;;;;;;;66.93;28.90;;;;;;;6.55;100.00;103959.28;5029948;28;20493;-59
2021/12/17 09:18:29;;;;;;;67.43;29.77;;;;;;;6.62;100.00;103967.84;5026572;28;20033;-62
2021/12/17 09:20:55;;;;;;;76.47;29.23;;;;;;;6.62;100.00;103982.78;5026355;28;20087;-62
2021/12/17 09:23:20;;;;;;;68.03;28.25;;;;;;;6.65;100.00;103980.03;5026348;28;20034;-62
2021/12/17 09:25:45;;;;;;;74.30;30.02;;;;;;;6.68;100.00;103988.69;5031649;28;20072;-62
2021/12/17 09:28:10;;;;;;;73.38;29.05;;;;;;;6.72;100.00;104000.00;5028419;28;20049;-62
2021/12/17 09:30:37;;;;;;;74.28;29.42;;;;;;;6.71;100.00;103998.28;5031900;28;20128;-62
2021/12/17 09:33:02;;;;;;;63.38;27.88;;;;;;;6.74;100.00;103992.88;5032588;28;20021;-62
2021/12/17 09:35:28;;;;;;;68.15;28.80;;;;;;;6.74;100.00;104006.06;5032416;28;20025;-61
2021/12/17 09:37:53;;;;;;;67.38;28.45;;;;;;;6.75;100.00;104007.78;5035313;28;20037;-62
2021/12/17 09:40:19;;;;;;;67.45;29.25;;;;;;;6.76;100.00;104006.84;5030425;28;20052;-62
2021/12/17 09:42:45;;;;;;;72.93;29.42;;;;;;;6.79;100.00;104001.47;5029625;28;20537;-62
2021/12/17 09:45:12;;;;;;;75.13;29.38;;;;;;;6.79;100.00;104006.75;5031663;28;20021;-62
2021/12/17 09:47:39;;;;;;;75.13;29.85;;;;;;;6.80;100.00;104008.47;5032017;28;20048;-62
2021/12/17 09:50:06;;;;;;;67.45;29.77;;;;;;;6.84;100.00;104014.47;5026455;28;20128;-62
2021/12/17 09:52:31;;;;;;;70.28;29.00;;;;;;;6.87;100.00;104011.75;5030633;28;20516;-62
2021/12/17 09:54:57;;;;;;;80.82;31.58;;;;;;;6.86;100.00;104013.50;5030111;28;20040;-60
2021/12/17 09:57:23;;;;;;;70.30;29.27;;;;;;;6.89;100.00;104024.84;5031717;28;20112;-60
2021/12/17 09:59:48;;;;;;;71.45;29.23;;;;;;;6.90;100.00;104029.22;5031850;28;20026;-60
2021/12/17 10:02:13;;;;;;;80.03;29.77;;;;;;;6.89;100.00;104015.16;5034442;28;20032;-60
2021/12/17 10:04:42;;;;;;;69.07;29.15;;;;;;;6.90;100.00;104023.97;5032798;28;20057;-60
2021/12/17 10:07:23;;;;;;;74.53;29.90;;;;;;;6.91;100.00;104023.03;5025067;28;20386;-60
2021/12/17 10:10:01;;;;;;;69.18;28.17;;;;;;;6.88;100.00;104015.22;5027410;28;20021;-61
2021/12/17 10:12:29;;;;;;;75.18;29.67;;;;;;;6.90;100.00;104024.78;5032968;28;20470;-61
2021/12/17 10:15:07;;;;;;;71.38;29.30;;;;;;;6.91;100.00;104023.88;5033814;28;20022;-61
2021/12/17 10:17:37;;;;;;;73.85;30.25;;;;;;;6.90;100.00;104029.22;5036162;28;20057;-61
2021/12/17 10:20:05;;;;;;;74.38;30.08;;;;;;;6.90;100.00;104018.69;5032988;28;20237;-62
2021/12/17 10:22:31;;;;;;;67.45;28.50;;;;;;;6.86;100.00;104016.16;5032054;28;20030;-61
2021/12/17 10:24:59;;;;;;;73.43;29.35;;;;;;;6.91;100.00;104025.66;5033676;28;20025;-61
2021/12/17 10:27:28;;;;;;;68.13;28.73;;;;;;;6.89;100.00;104019.56;5029798;28;20068;-61
2021/12/17 10:29:55;;;;;;;73.78;28.98;;;;;;;6.92;100.00;104033.53;5028554;28;20167;-62
2021/12/17 10:32:23;;;;;;;64.45;27.80;;;;;;;6.95;100.00;104029.88;5029812;28;20041;-61
2021/12/17 10:35:02;;;;;;;64.93;27.75;;;;;;;6.94;100.00;104018.50;5023102;28;20493;-61
2021/12/17 10:37:38;;;;;;;74.55;28.63;;;;;;;6.98;100.00;104027.16;5031050;28;20116;-61
2021/12/17 10:40:15;;;;;;;60.13;25.13;;;;;;;7.00;100.00;104020.91;5029488;28;20037;-61
2021/12/17 10:42:47;;;;;;;65.32;25.80;;;;;;;7.00;100.00;104020.03;5031071;28;20033;-61
2021/12/17 10:45:23;;;;;;;61.72;25.73;;;;;;;7.02;100.00;104015.56;5029965;28;20486;-61
2021/12/17 10:48:01;;;;;;;65.28;26.40;;;;;;;7.06;100.00;104025.06;5030903;28;20048;-61
2021/12/17 10:50:27;;;;;;;63.30;24.67;;;;;;;7.09;100.00;104024.97;5030648;28;20032;-61
2021/12/17 10:52:56;;;;;;;56.85;22.52;;;;;;;7.11;100.00;104028.38;5031197;28;20026;-61
2021/12/17 10:55:24;;;;;;;54.03;21.67;;;;;;;7.10;100.00;104026.69;5026617;28;20080;-61
2021/12/17 10:57:50;;;;;;;52.78;20.83;;;;;;;7.13;100.00;104023.06;5029586;28;20032;-61
2021/12/17 11:00:17;;;;;;;50.63;19.80;;;;;;;7.13;100.00;104031.84;5030674;28;20029;-61
2021/12/17 11:02:53;;;;;;;48.67;18.90;;;;;;;7.15;100.00;104033.56;5030787;28;20041;-61
2021/12/17 11:05:19;;;;;;;50.15;19.20;;;;;;;7.13;100.00;104020.41;5032062;28;20053;-61
2021/12/17 11:07:47;;;;;;;50.85;18.85;;;;;;;7.13;100.00;104031.84;5032122;28;20522;-62
2021/12/17 11:10:13;;;;;;;48.97;17.88;;;;;;;7.12;100.00;104035.38;5030252;28;20108;-61
2021/12/17 11:12:40;;;;;;;47.80;17.90;;;;;;;7.16;100.00;104033.50;5032048;28;20041;-62
2021/12/17 11:15:21;;;;;;;43.13;16.88;;;;;;;7.17;100.00;104027.31;5028788;28;20072;-60
2021/12/17 11:18:04;;;;;;;48.00;16.48;;;;;;;7.17;100.00;104021.16;5026332;28;20094;-61
2021/12/17 11:20:33;;;;;;;43.95;16.08;;;;;;;7.15;100.00;104023.00;5020936;28;20022;-61
2021/12/17 11:23:05;;;;;;;45.70;17.00;;;;;;;7.22;100.00;104021.84;5031588;28;20021;-61
2021/12/17 11:25:31;;;;;;;48.15;16.73;;;;;;;7.24;100.00;104022.63;5028538;28;20025;-59
2021/12/17 11:27:56;;;;;;;43.95;16.35;;;;;;;7.27;100.00;104019.88;5027191;28;20033;-59
2021/12/17 11:30:36;;;;;;;47.10;16.75;;;;;;;7.30;100.00;104011.81;5029862;28;20103;-60
2021/12/17 11:33:04;;;;;;;44.55;16.33;;;;;;;7.30;100.00;104005.69;5028734;28;20413;-59
2021/12/17 11:35:31;;;;;;;45.50;16.98;;;;;;;7.31;100.00;104010.94;5030304;28;20025;-59
2021/12/17 11:38:04;;;;;;;42.45;15.55;;;;;;;7.33;100.00;104011.72;5030053;28;20029;-59
2021/12/17 11:40:32;;;;;;;;;;;;;;;7.41;100.00;103995.56;5026071;28;20036;-62
2021/12/17 11:43:23;;;;;;;43.63;16.65;;;;;;;7.31;100.00;103986.28;5030393;28;19927;-61
2021/12/17 11:46:00;;;;;;;45.33;16.58;;;;;;;7.31;100.00;103987.16;5031187;28;20040;-62
2021/12/17 11:48:27;;;;;;;40.35;15.98;;;;;;;7.33;100.00;103982.69;5029470;28;20025;-61
2021/12/17 11:51:14;;;;;;;42.67;16.13;;;;;;;7.37;100.00;103986.03;5028724;28;20033;-61
2021/12/17 11:53:42;;;;;;;41.85;15.82;;;;;;;7.34;100.00;103981.75;5025252;28;20029;-61
2021/12/17 11:56:07;;;;;;;41.80;16.42;;;;;;;7.36;100.00;103979.91;5028097;28;20025;-61
2021/12/17 11:58:43;;;;;;;38.60;15.80;;;;;;;7.38;100.00;103978.06;5027960;28;20022;-61
2021/12/17 12:01:09;;;;;;;39.22;15.73;;;;;;;7.38;100.00;103980.72;5029860;28;20022;-61
2021/12/17 12:03:34;;;;;;;40.55;16.45;;;;;;;7.38;100.00;103977.19;5028613;28;20116;-62
2021/12/17 12:06:00;;;;;;;41.10;16.27;;;;;;;7.40;100.00;103976.22;5029237;28;20052;-61
2021/12/17 12:08:47;;;;;;;37.88;16.17;;;;;;;7.40;100.00;103970.94;5028831;28;20038;-61
2021/12/17 12:11:17;;;;;;;39.50;17.20;;;;;;;7.42;100.00;103972.66;5045785;28;20029;-61
2021/12/17 12:13:46;;;;;;;34.13;15.88;;;;;;;7.38;100.00;103975.44;5030255;28;20036;-61
2021/12/17 12:16:17;;;;;;;38.53;16.80;;;;;;;7.38;100.00;103979.84;5026527;28;20464;-61
2021/12/17 12:18:46;;;;;;;34.50;16.08;;;;;;;7.37;100.00;103986.91;5029764;28;20302;-61
2021/12/17 12:21:17;;;;;;;35.08;16.00;;;;;;;7.38;100.00;103988.63;5030310;28;20033;-61
2021/12/17 12:24:09;;;;;;;39.08;17.08;;;;;;;7.43;100.00;103993.72;5030882;28;20478;-61
2021/12/17 12:26:55;;;;;;;34.75;17.00;;;;;;;7.43;100.00;103998.13;5029322;28;20029;-61
2021/12/17 12:29:23;;;;;;;36.72;17.17;;;;;;;7.40;100.00;103993.81;5029718;28;20077;-61
2021/12/17 12:31:55;;;;;;;34.13;16.88;;;;;;;7.39;100.00;103989.47;5031179;28;20477;-62
2021/12/17 12:34:47;;;;;;;31.92;16.02;;;;;;;7.46;100.00;103984.81;5033231;28;20060;-62
2021/12/17 12:37:21;;;;;;;35.53;16.02;;;;;;;7.43;100.00;103984.91;5029350;28;20510;-61
2021/12/17 12:39:48;;;;;;;30.98;15.98;;;;;;;7.42;100.00;103983.22;5030935;28;20422;-61
2021/12/17 12:42:22;;;;;;;31.65;16.00;;;;;;;7.40;100.00;103986.78;5031144;28;20037;-62
2021/12/17 12:44:50;;;;;;;34.00;16.75;;;;;;;7.41;100.00;103977.09;5026291;28;20048;-61
2021/12/17 12:47:26;;;;;;;26.35;13.35;;;;;;;7.40;100.00;103973.56;5028275;28;20371;-61
2021/12/17 12:49:59;;;;;;;25.20;13.52;;;;;;;7.37;100.00;103971.06;5030018;28;20033;-61
2021/12/17 12:52:30;;;;;;;25.92;12.40;;;;;;;7.40;100.00;103973.56;5030330;28;20515;-62
2021/12/17 12:55:15;;;;;;;25.10;11.80;;;;;;;7.40;100.00;103973.56;5023131;28;20171;-60
2021/12/17 12:57:43;;;;;;;24.92;11.90;;;;;;;7.38;100.00;103972.78;5018775;28;20029;-61
2021/12/17 13:00:20;;;;;;;19.00;10.00;;;;;;;7.39;100.00;103966.59;5027883;28;20033;-61
2021/12/17 13:02:52;;;;;;;20.70;10.18;;;;;;;7.36;100.00;103966.69;5029783;28;20040;-61
2021/12/17 13:05:18;;;;;;;19.93;9.43;;;;;;;7.36;100.00;103977.25;5027816;28;20046;-61
2021/12/17 13:07:53;;;;;;;16.27;8.55;;;;;;;7.37;100.00;103979.00;5030440;28;20819;-61
2021/12/17 13:10:23;;;;;;;15.60;8.90;;;;;;;7.34;100.00;103970.31;5027169;28;20065;-61
2021/12/17 13:13:27;;;;;;;15.82;9.00;;;;;;;7.33;100.00;103966.84;5029419;28;20033;-61
2021/12/17 13:21:17;;;;;;;24.92;12.73;;;;;;;7.29;100.00;103967.88;5027936;28;20041;-61
2021/12/17 13:23:50;;;;;;;27.92;13.00;;;;;;;7.30;100.00;103974.88;5028443;28;20116;-62
2021/12/17 13:26:18;;;;;;;28.35;13.73;;;;;;;7.22;100.00;103962.00;5029275;28;20025;-61
2021/12/17 13:28:47;;;;;;;27.52;13.82;;;;;;;7.27;100.00;103977.66;5027053;28;20556;-62
2021/12/17 13:31:38;;;;;;;26.17;14.13;;;;;;;7.22;100.00;103972.56;5029043;28;20479;-62
2021/12/17 13:34:21;;;;;;;28.58;14.20;;;;;;;7.22;100.00;103971.69;5026349;28;20029;-61
2021/12/17 13:37:11;;;;;;;26.30;13.75;;;;;;;7.15;100.00;103968.41;5026963;28;20029;-61
2021/12/17 13:39:43;;;;;;;27.08;14.10;;;;;;;7.23;100.00;103973.41;5016566;28;20387;-61
2021/12/17 13:42:15;;;;;;;28.00;14.05;;;;;;;7.22;100.00;103974.31;5029080;28;20061;-61
2021/12/17 13:44:47;;;;;;;26.73;13.90;;;;;;;7.24;100.00;103975.13;5029144;28;20029;-61
2021/12/17 13:47:26;;;;;;;16.38;8.68;;;;;;;7.23;100.00;103973.41;5028205;28;20033;-61
2021/12/17 13:50:04;;;;;;;15.27;8.75;;;;;;;7.21;100.00;103968.19;5027052;28;20528;-61
2021/12/17 13:52:31;;;;;;;15.70;7.82;;;;;;;7.22;100.00;103971.69;5028910;28;20030;-59
2021/12/17 13:55:00;;;;;;;11.68;7.65;;;;;;;7.21;100.00;103964.69;5023463;28;20080;-59
2021/12/17 13:57:31;;;;;;;12.43;7.20;;;;;;;7.17;99.63;103973.66;5025902;28;20029;-61
2021/12/17 14:00:20;;;;;;;12.88;7.30;;;;;;;7.20;100.00;103973.53;5028423;28;20550;-61